Kezdőlap
METAR-TAF:

METAR-TAF

Repülőterek :

Quentin Aanenson Field

Luverne, Minnesota, Amerikai Egyesült Államok

földrajzi szélesség: 43-37-16N, földrajzi hosszúság: 096-12-58W, magasság: 436 m

Jelenlegi meteorológiai megfigyelések

A jelentés 15 perccel ezelõtt készült, 11:15 UTC
Délkeleti szél 7 kt
Hőmérséklet -8°C
Páratartalom 85%
Légköri nyomás 1012 hPa
Látótávolság: 4.0 km
Borult 300 lábon
Párásság

METAR: KLYV 131115Z AUTO 14007KT 2 1/2SM BR OVC003 M08/M10 A2987 RMK AO2

Idő: 05:30 (11:30 UTC)


TAF: hiányzik

Meteorológiai megfigyelések és előrejelzések több, mint 4000 repülőtéren (METAR és TAF jelentéseket).

A térképen piros és sárga pontok jelzik az elérhető meteorológiai állomásokat.

Mozgassa az egeret a pont fölött, hogy megjelenjen az állomás neve.

Azután kattintson az időjárási megfigyelések és előrejelzések megtekintéséhez.

A térkép megváltoztatása: kattintson a fekete keresztel jelölt zöld gombra ráközelítéshez, a vonallal jelölt zöld gombra távolításhoz, vagy a zöld nyilakra a szomszédos térképek eléréséhez.


METAR-TAF: